• Join FlightAware (Why Join?)
  • Login
  • US Flag 
03:08AM EDT


 

Airport Tracker/Info


-or-


 

Live Flight TrackerFlight Track Log ✈ ASQ5750 ✈ 27-Apr-2013 ✈ KALB - KORD

Flight Track Log - Related Links

Times and Time Zones

All times are in EDT time to prevent confusion due to time zone crossing. See the ASQ5750 flight status page for this flight to view local times or setup timezone preferences in your user account.

Time Position Orientation Groundspeed Altitude Reporting Facility
EDT Latitude Longitude Course Direction KTS MPH feet Rate Location/Type
11:45AM 42.8086 -73.8381 334° Northwest 198 228 3,900  Level Boston Center
11:46AM 42.8306 -73.9181 291° West 223 257 6,400 2,880 Climbing Boston Center
11:47AM 42.8564 -74.0119 291° West 249 287 9,700 3,240 Climbing Boston Center
11:48AM 42.8906 -74.0922 300° West 255 293 12,900 2,700 Climbing Boston Center
11:49AM 42.9394 -74.1758 309° West 267 307 15,200 2,400 Climbing Boston Center
11:50AM 42.9903 -74.2594 310° West 286 329 17,800 1,920 Climbing Boston Center
11:51AM 43.0389 -74.3378 310° West 286 329 19,100 1,800 Climbing Boston Center
11:52AM 43.0833 -74.4328 303° West 297 342 21,400 1,800 Climbing Boston Center
11:53AM 43.0875 -74.5497 273° West 292 336 22,700 1,440 Climbing Boston Center
11:54AM 43.0933 -74.6750 274° West 311 358 24,300 1,500 Climbing Boston Center
11:55AM 43.0992 -74.8003 274° West 328 377 25,800 1,320 Climbing Boston Center
11:56AM 43.1047 -74.9256 274° West 328 377 27,000 960 Climbing Boston Center
11:57AM 43.1125 -75.0539 275° West 333 383 27,800 840 Climbing Boston Center
11:58AM 43.1197 -75.1881 274° West 346 398 28,700 900 Climbing Boston Center
11:59AM 43.1247 -75.3247 273° West 357 411 29,700 900 Climbing Boston Center
12:00PM 43.1294 -75.4617 273° West 362 417 30,600 900 Climbing Boston Center
12:01PM 43.1361 -75.5986 274° West 362 417 31,500 780 Climbing Boston Center
12:02PM 43.1428 -75.7328 274° West 367 422 32,200 660 Climbing Boston Center
12:03PM 43.1492 -75.8697 274° West 367 422 32,900 600 Climbing Boston Center
12:04PM 43.1553 -76.0094 273° West 367 422 33,500 540 Climbing Boston Center
12:05PM 43.1594 -76.1436 272° West 367 422 34,000 120 Climbing Boston Center
12:07PM 43.1606 -76.4758 270° West 365 420 34,000  Level Cleveland Center
12:08PM 43.1614 -76.6153 271° West 365 420 34,000  Level Cleveland Center
12:09PM 43.1611 -76.7378 270° West 365 420 34,000  Level Cleveland Center
12:10PM 43.1594 -76.8772 269° West 365 420 34,000  Level Cleveland Center
12:11PM 43.1597 -77.0169 270° West 365 420 34,000  Level Cleveland Center
12:12PM 43.1575 -77.1536 269° West 365 420 34,000 240 Level Cleveland Center
12:13PM 43.1575 -77.2931 270° West 365 420 34,500 600 Climbing Cleveland Center
12:14PM 43.1550 -77.4328 269° West 370 426 35,300 720 Climbing Cleveland Center
12:15PM 43.1547 -77.5694 270° West 365 420 36,000 300 Climbing Cleveland Center
12:16PM 43.1539 -77.7031 270° West 365 420 36,000  Level Cleveland Center
12:17PM 43.1508 -77.8400 268° West 365 420 36,000  Level Cleveland Center
12:18PM 43.1500 -77.9767 270° West 365 420 36,000  Level Cleveland Center
12:19PM 43.1467 -78.1189 268° West 370 426 36,000  Level Cleveland Center
12:20PM 43.1456 -78.2586 269° West 370 426 36,000  Level Cleveland Center
12:21PM 43.1419 -78.4036 268° West 370 426 36,000  Level Cleveland Center
12:22PM 43.1383 -78.5406 268° West 370 426 36,000  Level Cleveland Center
12:23PM 43.1344 -78.6800 268° West 370 426 36,000  Level Cleveland Center
12:24PM 43.1325 -78.8194 269° West 370 426 36,000  Level Cleveland Center
12:25PM 43.1167 -78.9333 259° West 370 426 36,000  Level Toronto Center
12:26PM 43.1167 -79.0667 270° West 370 426 36,000  Level Toronto Center
12:27PM 43.1167 -79.2000 270° West 360 414 36,000  Level Toronto Center
12:28PM 43.1000 -79.3333 260° West 360 414 36,000  Level Toronto Center
12:29PM 43.1000 -79.4667 270° West 360 414 36,000  Level Toronto Center
12:30PM 43.1000 -79.6167 270° West 360 414 36,000  Level Toronto Center
12:31PM 43.0833 -79.7500 260° West 360 414 36,000  Level Toronto Center
12:32PM 43.0833 -79.8833 270° West 360 414 36,000  Level Toronto Center
12:33PM 43.0833 -80.0167 270° West 360 414 36,000  Level Toronto Center
12:34PM 43.0667 -80.1500 260° West 360 414 36,000  Level Toronto Center
12:35PM 43.0667 -80.3000 270° West 360 414 36,000  Level Toronto Center
12:36PM 43.0667 -80.4333 270° West 360 414 36,000  Level Toronto Center
12:37PM 43.0500 -80.5667 260° West 360 414 36,000  Level Toronto Center
12:38PM 43.0500 -80.7000 270° West 360 414 36,000  Level Toronto Center
12:39PM 43.0333 -80.8500 261° West 360 414 36,000  Level Toronto Center
12:40PM 43.0333 -80.9833 270° West 360 414 36,000  Level Toronto Center
12:41PM 43.0167 -81.1167 260° West 360 414 36,000  Level Toronto Center
12:42PM 43.0167 -81.2500 270° West 360 414 36,000  Level Toronto Center
12:43PM 43.0167 -81.3833 270° West 360 414 36,000  Level Toronto Center
12:44PM 43.0167 -81.5333 270° West 360 414 36,000  Level Toronto Center
12:45PM 43.0167 -81.6667 270° West 360 414 36,000  Level Toronto Center
12:46PM 43.0167 -81.8000 270° West 360 414 36,000  Level Toronto Center
12:47PM 43.0000 -81.9333 260° West 360 414 36,000  Level Toronto Center
12:48PM 43.0000 -82.0667 270° West 360 414 36,000  Level Toronto Center
12:49PM 43.0000 -82.2167 270° West 360 414 36,000  Level Toronto Center
12:50PM 43.0000 -82.3500 270° West 360 414 36,000  Level Toronto Center
12:51PM 43.0000 -82.5000 270° West 360 414 36,000  Level Toronto Center
12:52PM 43.0000 -82.6167 270° West 360 414 36,000  Level Toronto Center
12:52PM 43.0039 -82.6811 275° West 363 418 36,000 -420 Level Cleveland Center
12:53PM 42.9992 -82.8172 267° West 363 418 35,500 -780 Descending Cleveland Center
12:54PM 42.9939 -82.9703 267° West 378 435 34,500 -1,020 Descending Cleveland Center
12:55PM 42.9908 -83.1264 269° West 399 459 33,500 -1,020 Descending Cleveland Center
12:56PM 42.9831 -83.2794 266° West 406 467 32,500 -780 Descending Cleveland Center
12:57PM 42.9792 -83.4353 268° West 412 474 32,000 -300 Descending Cleveland Center
12:58PM 42.9731 -83.5967 267° West 418 481 32,000  Level Cleveland Center
12:59PM 42.9647 -83.7525 266° West 418 481 32,000  Level Cleveland Center
01:00PM 42.9500 -83.9106 263° West 423 487 32,000  Level Cleveland Center
01:01PM 42.9347 -84.0714 263° West 423 487 32,000  Level Cleveland Center
01:02PM 42.9194 -84.2322 263° West 423 487 32,000  Level Cleveland Center
01:03PM 42.9033 -84.4014 263° West 423 487 32,000  Level Cleveland Center
01:05PM 42.8850 -84.5833 262° West 422 486 32,000  Level Chicago Center
01:06PM 42.8683 -84.7436 262° West 426 490 32,000  Level Chicago Center
01:07PM 42.8519 -84.9006 262° West 422 486 32,000  Level Chicago Center
01:08PM 42.8308 -85.0925 262° West 426 490 32,000  Level Chicago Center
01:09PM 42.8147 -85.2531 262° West 427 491 32,000  Level Chicago Center
01:10PM 42.7967 -85.4142 261° West 431 496 32,000 -1,020 Level Chicago Center
01:11PM 42.7733 -85.5753 259° West 434 499 30,000 -2,100 Descending Chicago Center
01:12PM 42.7453 -85.7300 256° West 421 484 27,700 -2,220 Descending Chicago Center
01:13PM 42.7186 -85.8778 256° West 405 466 25,500 -2,100 Descending Chicago Center
01:14PM 42.6928 -86.0219 256° West 393 452 23,400 -2,040 Descending Chicago Center
01:15PM 42.6667 -86.1625 256° West 383 441 21,400 -1,680 Descending Chicago Center
01:16PM 42.6411 -86.3025 256° West 381 438 20,000 -840 Descending Chicago Center
01:17PM 42.6144 -86.4389 255° West 376 433 19,800 -1,140 Descending Chicago Center
01:18PM 42.5853 -86.5992 256° West 362 417 17,700 -2,040 Descending Chicago Center
01:19PM 42.5614 -86.7272 256° West 351 404 15,700 -1,920 Descending Chicago Center
01:20PM 42.5289 -86.8483 250° West 346 398 13,800 -1,800 Descending Chicago Center
01:21PM 42.4967 -86.9706 250° West 339 390 12,100 -1,740 Descending Chicago Center
01:22PM 42.4625 -87.0828 248° West 334 384 10,300 -1,020 Descending Chicago Center
01:23PM 42.4322 -87.1925 250° West 318 366 10,000 -600 Descending Chicago Center
01:24PM 42.4053 -87.2911 250° West 290 334 9,100 -780 Descending Chicago Center
01:25PM 42.3742 -87.4086 250° West 279 321 8,500 -840 Descending Chicago Center
01:26PM 42.3464 -87.5019 248° West 273 314 7,500 -780 Descending Chicago Center
01:27PM 42.2958 -87.5667 223° Southwest 249 287 7,000 -300 Descending Chicago Center
01:28PM 42.2439 -87.6281 221° Southwest 246 283 7,000 -540 Level Chicago Center
01:29PM 42.1892 -87.6819 216° Southwest 243 280 5,900 -1,200 Descending Chicago Center
01:30PM 42.1425 -87.7356 220° Southwest 227 261 4,600 -1,380 Descending Chicago Center
01:31PM 42.1167 -87.7667 222° Southwest 204 235 4,000 -1,260 Descending Chicago TRACON
01:32PM 42.0833 -87.8000 217° Southwest 185 213 2,900 -1,020 Descending Chicago TRACON
01:33PM 42.0500 -87.8500 228° Southwest 158 182 2,000 -900 Descending Chicago TRACON
01:34PM 42.0167 -87.8833 217° Southwest 135 155 1,200 -840 Descending Chicago TRACON
01:36PM 41.9817 -87.9067 180° South  Level Estimated
01:43PM 41.9817 -87.9067 180° South  Level Estimated